createdAt,value
2023-02-09T00:01:45.914Z,17.47
2023-02-09T00:04:17.751Z,17.20
2023-02-09T00:06:47.643Z,20.50
2023-02-09T00:09:21.696Z,17.50
2023-02-09T00:12:10.745Z,17.67
2023-02-09T00:14:49.567Z,18.77
2023-02-09T00:17:21.418Z,18.07
2023-02-09T00:19:52.009Z,18.70
2023-02-09T00:22:29.222Z,17.70
2023-02-09T00:25:05.764Z,18.70
2023-02-09T00:27:37.778Z,18.00
2023-02-09T00:30:11.766Z,17.63
2023-02-09T00:32:43.813Z,18.60
2023-02-09T00:35:20.039Z,17.30
2023-02-09T00:37:49.553Z,18.20
2023-02-09T00:40:26.905Z,18.50
2023-02-09T00:43:06.907Z,18.03
2023-02-09T00:45:42.278Z,17.67
2023-02-09T00:48:20.059Z,17.57
2023-02-09T00:50:48.705Z,18.23
2023-02-09T00:53:27.084Z,19.43
2023-02-09T00:56:00.423Z,16.70
2023-02-09T00:58:33.061Z,18.53
2023-02-09T01:01:22.314Z,17.53
2023-02-09T01:04:00.942Z,17.20
2023-02-09T01:06:39.598Z,20.03
2023-02-09T01:09:09.967Z,17.13
2023-02-09T01:11:42.140Z,17.07
2023-02-09T01:14:30.344Z,19.23
2023-02-09T01:17:06.129Z,17.63
2023-02-09T01:19:37.450Z,18.17
2023-02-09T01:22:07.226Z,19.80
2023-02-09T01:24:42.678Z,17.60
2023-02-09T01:27:14.115Z,19.07
2023-02-09T01:29:51.801Z,16.53
2023-02-09T01:32:30.429Z,17.23
2023-02-09T01:35:14.428Z,17.63
2023-02-09T01:37:44.173Z,17.07
2023-02-09T01:40:19.365Z,19.00
2023-02-09T01:42:57.470Z,19.33
2023-02-09T01:45:36.395Z,18.40
2023-02-09T01:48:08.630Z,19.70
2023-02-09T01:50:45.238Z,19.03
2023-02-09T01:53:29.935Z,18.47
2023-02-09T01:56:17.664Z,17.60
2023-02-09T01:58:51.462Z,17.83
2023-02-09T02:01:24.663Z,18.80
2023-02-09T02:04:00.998Z,19.00
2023-02-09T02:06:36.861Z,17.90
2023-02-09T02:09:20.445Z,17.20
2023-02-09T02:12:06.057Z,18.00
2023-02-09T02:14:40.711Z,18.63
2023-02-09T02:17:30.124Z,21.67
2023-02-09T02:20:48.799Z,19.30
2023-02-09T02:23:40.117Z,18.50
2023-02-09T02:26:45.877Z,19.40
2023-02-09T02:29:54.709Z,18.40
2023-02-09T02:32:45.617Z,17.87
2023-02-09T02:35:22.948Z,18.00
2023-02-09T02:38:06.180Z,16.80
2023-02-09T02:40:47.417Z,19.27
2023-02-09T02:43:26.886Z,20.83
2023-02-09T02:46:04.601Z,16.70
2023-02-09T02:48:51.425Z,18.87
2023-02-09T02:51:32.524Z,18.63
2023-02-09T02:54:10.351Z,17.93
2023-02-09T02:56:46.544Z,18.93
2023-02-09T02:59:23.993Z,20.00
2023-02-09T03:01:59.537Z,18.50
2023-02-09T03:04:40.883Z,20.30
2023-02-09T03:07:10.661Z,19.10
2023-02-09T03:09:50.678Z,19.00
2023-02-09T03:12:39.663Z,19.70
2023-02-09T03:15:41.103Z,19.40
2023-02-09T03:18:34.752Z,20.07
2023-02-09T03:21:30.574Z,20.07
2023-02-09T03:24:06.869Z,20.10
2023-02-09T03:26:48.211Z,18.53
2023-02-09T03:29:22.182Z,18.67
2023-02-09T03:31:53.893Z,20.07
2023-02-09T03:34:35.065Z,19.07
2023-02-09T03:37:08.813Z,19.83
2023-02-09T03:39:47.315Z,18.80
2023-02-09T03:42:29.347Z,18.60
2023-02-09T03:44:59.407Z,20.40
2023-02-09T03:47:31.531Z,20.00
2023-02-09T03:50:01.899Z,19.37
2023-02-09T03:52:42.558Z,20.80
2023-02-09T03:55:16.575Z,21.40
2023-02-09T03:57:50.414Z,20.87
2023-02-09T04:00:24.634Z,20.30
2023-02-09T04:02:55.342Z,19.93
2023-02-09T04:05:35.358Z,21.70
2023-02-09T04:08:09.796Z,20.17
2023-02-09T04:10:46.855Z,19.30
2023-02-09T04:13:24.498Z,20.60
2023-02-09T04:16:08.276Z,20.37
2023-02-09T04:18:43.146Z,20.07
2023-02-09T04:21:14.606Z,19.47
2023-02-09T04:23:49.873Z,20.73
2023-02-09T04:26:26.620Z,21.00
2023-02-09T04:28:56.254Z,19.50
2023-02-09T04:31:37.296Z,20.83
2023-02-09T04:34:07.187Z,20.20
2023-02-09T04:36:38.682Z,20.93
2023-02-09T04:39:29.191Z,20.70
2023-02-09T04:42:04.064Z,20.47
2023-02-09T04:44:35.769Z,19.90
2023-02-09T04:47:08.900Z,19.63
2023-02-09T04:49:45.292Z,21.00
2023-02-09T04:52:25.316Z,21.03
2023-02-09T04:54:56.380Z,20.23
2023-02-09T04:57:43.504Z,22.13
2023-02-09T05:00:26.730Z,21.60
2023-02-09T05:02:56.493Z,21.27
2023-02-09T05:05:28.079Z,21.63
2023-02-09T05:07:57.175Z,21.30
2023-02-09T05:10:34.630Z,21.80
2023-02-09T05:13:13.375Z,21.13
2023-02-09T05:15:59.380Z,21.73
2023-02-09T05:18:31.361Z,21.70
2023-02-09T05:21:10.196Z,21.70
2023-02-09T05:23:52.850Z,20.77
2023-02-09T05:26:30.350Z,22.80
2023-02-09T05:28:59.315Z,20.63
2023-02-09T05:31:35.659Z,22.27
2023-02-09T05:34:08.767Z,23.57
2023-02-09T05:36:47.053Z,23.43
2023-02-09T05:39:24.078Z,23.50
2023-02-09T05:42:13.417Z,23.80
2023-02-09T05:44:50.322Z,24.30
2023-02-09T05:47:25.834Z,23.63
2023-02-09T05:49:59.396Z,23.70
2023-02-09T05:52:31.166Z,25.03
2023-02-09T05:55:13.217Z,24.33
2023-02-09T05:57:56.386Z,26.50
2023-02-09T06:00:27.212Z,24.33
2023-02-09T06:02:58.803Z,24.80
2023-02-09T06:05:35.549Z,25.10
2023-02-09T06:08:07.924Z,24.40
2023-02-09T06:10:40.020Z,27.03
2023-02-09T06:13:17.226Z,25.37
2023-02-09T06:15:53.140Z,25.50
2023-02-09T06:18:36.312Z,25.20
2023-02-09T06:21:22.474Z,26.40
2023-02-09T06:23:54.597Z,25.07
2023-02-09T06:26:25.079Z,26.90
2023-02-09T06:28:56.106Z,25.50
2023-02-09T06:31:35.470Z,25.60
2023-02-09T06:34:13.756Z,27.00
2023-02-09T06:36:50.948Z,24.13
2023-02-09T06:39:36.311Z,25.10
2023-02-09T06:42:06.931Z,25.50
2023-02-09T06:44:39.696Z,25.97
2023-02-09T06:47:09.454Z,26.37
2023-02-09T06:49:51.521Z,23.23
2023-02-09T06:52:31.522Z,23.30
2023-02-09T06:55:06.292Z,24.07
2023-02-09T06:57:36.546Z,22.77
2023-02-09T07:00:15.563Z,23.80
2023-02-09T07:03:03.308Z,25.17
2023-02-09T07:05:34.005Z,23.90
2023-02-09T07:08:04.678Z,23.50
2023-02-09T07:10:32.937Z,24.67
2023-02-09T07:13:04.663Z,23.43
2023-02-09T07:15:39.667Z,25.53
2023-02-09T07:18:14.776Z,23.33
2023-02-09T07:20:43.049Z,23.90
2023-02-09T07:23:12.236Z,24.80
2023-02-09T07:25:45.404Z,23.73
2023-02-09T07:28:14.614Z,23.23
2023-02-09T07:30:49.344Z,22.43
2023-02-09T07:33:17.950Z,23.20
2023-02-09T07:35:47.540Z,22.43
2023-02-09T07:38:18.952Z,23.23
2023-02-09T07:40:56.133Z,24.73
2023-02-09T07:43:25.406Z,23.73
2023-02-09T07:46:17.254Z,23.97
2023-02-09T07:48:47.276Z,23.17
2023-02-09T07:51:17.148Z,23.70
2023-02-09T07:53:51.226Z,23.10
2023-02-09T07:56:34.101Z,23.03
2023-02-09T07:59:06.737Z,24.40
2023-02-09T08:01:46.172Z,22.23
2023-02-09T08:04:16.635Z,21.00
2023-02-09T08:06:50.268Z,22.13
2023-02-09T08:09:21.899Z,20.63
2023-02-09T08:11:54.462Z,20.77
2023-02-09T08:14:28.458Z,20.20
2023-02-09T08:17:16.355Z,21.77
2023-02-09T08:19:46.996Z,22.67
2023-02-09T08:22:19.198Z,20.93
2023-02-09T08:24:54.909Z,20.30
2023-02-09T08:27:24.215Z,21.17
2023-02-09T08:29:53.739Z,20.77
2023-02-09T08:32:28.192Z,19.60
2023-02-09T08:34:57.504Z,20.00
2023-02-09T08:37:29.371Z,19.70
2023-02-09T08:39:59.204Z,20.07
2023-02-09T08:42:30.440Z,20.60
2023-02-09T08:45:00.192Z,21.50
2023-02-09T08:47:46.834Z,22.00
2023-02-09T08:50:16.776Z,20.67
2023-02-09T08:52:46.480Z,21.07
2023-02-09T08:55:17.647Z,20.40
2023-02-09T08:57:46.069Z,19.03
2023-02-09T09:00:20.849Z,20.00
2023-02-09T09:02:51.802Z,20.00
2023-02-09T09:05:25.256Z,20.30
2023-02-09T09:07:54.722Z,20.33
2023-02-09T09:10:24.262Z,19.53
2023-02-09T09:12:54.619Z,20.00
2023-02-09T09:15:24.205Z,18.10
2023-02-09T09:18:05.133Z,18.10
2023-02-09T09:20:34.065Z,20.47
2023-02-09T09:23:08.223Z,19.00
2023-02-09T09:25:49.206Z,19.80
2023-02-09T09:28:20.402Z,19.37
2023-02-09T09:30:51.263Z,19.67
2023-02-09T09:33:23.509Z,19.33
2023-02-09T09:35:52.140Z,18.40
2023-02-09T09:38:24.493Z,16.60
2023-02-09T09:40:56.542Z,18.63
2023-02-09T09:43:35.724Z,17.90
2023-02-09T09:46:05.555Z,16.27
2023-02-09T09:48:52.485Z,16.50
2023-02-09T09:51:26.125Z,16.50
2023-02-09T09:54:01.254Z,16.50
2023-02-09T09:56:33.997Z,16.50
2023-02-09T09:59:03.900Z,14.60
2023-02-09T10:01:34.556Z,14.40
2023-02-09T10:04:10.930Z,15.63
2023-02-09T10:06:42.678Z,16.07
2023-02-09T10:09:23.847Z,14.90
2023-02-09T10:12:01.109Z,16.97
2023-02-09T10:14:32.809Z,17.83
2023-02-09T10:17:04.681Z,17.87
2023-02-09T10:19:40.052Z,16.00
2023-02-09T10:22:16.634Z,16.37
2023-02-09T10:24:46.168Z,16.20
2023-02-09T10:27:20.708Z,17.30
2023-02-09T10:29:49.657Z,17.93
2023-02-09T10:32:27.578Z,17.23
2023-02-09T10:35:04.955Z,15.40
2023-02-09T10:37:39.421Z,11.60
2023-02-09T10:40:15.945Z,11.30
2023-02-09T10:42:57.544Z,9.60
2023-02-09T10:45:30.023Z,10.70
2023-02-09T10:48:00.465Z,10.47
2023-02-09T10:50:34.574Z,11.30
2023-02-09T10:53:17.936Z,10.37
2023-02-09T10:55:47.962Z,10.33
2023-02-09T10:58:24.235Z,10.23
2023-02-09T11:01:03.716Z,11.70
2023-02-09T11:03:34.277Z,11.40
2023-02-09T11:06:09.428Z,11.17
2023-02-09T11:08:48.343Z,11.43
2023-02-09T11:11:30.606Z,12.40
2023-02-09T11:14:10.559Z,14.30
2023-02-09T11:16:59.130Z,12.10
2023-02-09T11:20:08.003Z,11.43
2023-02-09T11:23:29.246Z,12.10
2023-02-09T11:26:05.885Z,12.20
2023-02-09T11:28:53.718Z,13.10
2023-02-09T11:31:47.132Z,11.90
2023-02-09T11:37:37.641Z,12.10
2023-02-09T11:40:28.009Z,12.10
2023-02-09T11:43:10.532Z,14.13
2023-02-09T11:45:46.730Z,11.80
2023-02-09T11:48:26.870Z,12.87
2023-02-09T11:51:10.681Z,14.27
2023-02-09T11:53:46.136Z,12.83
2023-02-09T11:56:25.355Z,12.87
2023-02-09T11:59:02.654Z,12.63
2023-02-09T12:01:45.367Z,12.80
2023-02-09T12:04:23.931Z,12.53
2023-02-09T12:07:05.917Z,13.40
2023-02-09T12:09:55.529Z,12.67
2023-02-09T12:12:46.267Z,13.13
2023-02-09T12:15:25.021Z,12.33
2023-02-09T12:18:05.881Z,12.63
2023-02-09T12:20:56.288Z,12.70
2023-02-09T12:23:35.015Z,12.33
2023-02-09T12:26:42.421Z,12.43
2023-02-09T12:29:44.601Z,11.60
2023-02-09T12:32:50.813Z,12.80
2023-02-09T12:35:28.036Z,11.60
2023-02-09T12:38:21.326Z,12.90
2023-02-09T12:41:04.164Z,11.83
2023-02-09T12:43:47.865Z,12.73
2023-02-09T12:46:29.462Z,13.53
2023-02-09T12:49:11.553Z,15.70
2023-02-09T12:52:21.725Z,12.23
2023-02-09T12:54:54.252Z,11.77
2023-02-09T12:57:54.469Z,12.80
2023-02-09T13:00:44.812Z,11.20
2023-02-09T13:03:25.435Z,11.43
2023-02-09T13:05:58.676Z,12.10
2023-02-09T13:08:47.004Z,13.37
2023-02-09T13:11:32.851Z,11.60
2023-02-09T13:14:13.565Z,11.23
2023-02-09T13:17:16.624Z,12.83
2023-02-09T13:20:36.044Z,13.23
2023-02-09T13:23:33.237Z,11.70
2023-02-09T13:26:30.223Z,12.50
2023-02-09T13:29:22.008Z,12.57
2023-02-09T13:32:02.330Z,11.97
2023-02-09T13:34:40.385Z,13.00
2023-02-09T13:37:25.741Z,12.27
2023-02-09T13:40:03.182Z,12.40
2023-02-09T13:42:36.796Z,11.90
2023-02-09T13:45:23.459Z,12.63
2023-02-09T13:47:55.832Z,12.23
2023-02-09T13:50:28.375Z,15.03
2023-02-09T13:53:17.125Z,12.40
2023-02-09T13:55:48.445Z,11.87
2023-02-09T13:58:24.592Z,12.30
2023-02-09T14:00:55.914Z,11.30
2023-02-09T14:03:27.952Z,11.70
2023-02-09T14:06:02.881Z,12.13
2023-02-09T14:08:35.698Z,12.30
2023-02-09T14:11:14.781Z,11.17
2023-02-09T14:13:47.458Z,12.87
2023-02-09T14:16:29.531Z,13.23
2023-02-09T14:19:04.045Z,12.40
2023-02-09T14:21:48.660Z,12.57
2023-02-09T14:24:21.993Z,13.20
2023-02-09T14:27:03.282Z,12.90
2023-02-09T14:29:38.838Z,12.40
2023-02-09T14:32:33.062Z,13.93
2023-02-09T14:35:19.389Z,11.93
2023-02-09T14:37:59.416Z,12.43
2023-02-09T14:40:34.156Z,12.37
2023-02-09T14:43:22.808Z,11.73
2023-02-09T14:46:02.934Z,12.23
2023-02-09T14:48:34.939Z,12.43
2023-02-09T14:51:14.788Z,12.00
2023-02-09T14:53:56.818Z,12.13
2023-02-09T14:56:34.672Z,11.10
2023-02-09T14:59:05.754Z,10.30
2023-02-09T15:01:34.802Z,11.63
2023-02-09T15:04:04.596Z,11.90
2023-02-09T15:06:36.165Z,10.87
2023-02-09T15:09:15.370Z,11.97
2023-02-09T15:12:01.123Z,11.83
2023-02-09T15:14:40.341Z,12.00
2023-02-09T15:17:20.215Z,12.20
2023-02-09T15:19:50.311Z,11.73
2023-02-09T15:22:23.931Z,11.60
2023-02-09T15:25:02.703Z,11.77
2023-02-09T15:27:35.616Z,10.70
2023-02-09T15:30:21.743Z,10.47
2023-02-09T15:32:50.583Z,13.00
2023-02-09T15:35:22.664Z,11.70
2023-02-09T15:37:57.672Z,10.83
2023-02-09T15:40:48.990Z,10.63
2023-02-09T15:43:38.421Z,11.77
2023-02-09T15:46:28.065Z,11.57
2023-02-09T15:48:56.585Z,11.70
2023-02-09T15:51:29.967Z,12.27
2023-02-09T15:54:01.684Z,12.20
2023-02-09T15:56:38.647Z,12.40
2023-02-09T15:59:09.476Z,12.00
2023-02-09T16:01:40.426Z,11.67
2023-02-09T16:04:14.489Z,11.13
2023-02-09T16:06:55.469Z,11.43
2023-02-09T16:09:29.122Z,11.40
2023-02-09T16:12:10.506Z,12.10
2023-02-09T16:14:40.717Z,11.80
2023-02-09T16:17:09.666Z,11.90
2023-02-09T16:19:40.878Z,12.60
2023-02-09T16:22:11.830Z,13.43
2023-02-09T16:24:43.575Z,10.93
2023-02-09T16:27:24.809Z,20.07
2023-02-09T16:29:57.052Z,17.17
2023-02-09T16:32:33.313Z,16.10
2023-02-09T16:35:16.605Z,14.10
2023-02-09T16:37:51.393Z,13.90
2023-02-09T16:40:29.967Z,13.23
2023-02-09T16:43:06.352Z,12.60
2023-02-09T16:45:39.630Z,11.80
2023-02-09T16:48:14.424Z,12.63
2023-02-09T16:50:46.910Z,13.33
2023-02-09T16:53:19.242Z,11.90
2023-02-09T16:55:55.027Z,12.20
2023-02-09T16:58:26.825Z,12.87
2023-02-09T17:01:00.907Z,11.80
2023-02-09T17:03:41.337Z,12.60
2023-02-09T17:06:21.281Z,12.47
2023-02-09T17:09:07.311Z,11.73
2023-02-09T17:11:51.320Z,13.07
2023-02-09T17:14:26.265Z,11.63
2023-02-09T17:17:04.318Z,12.70
2023-02-09T17:19:46.944Z,12.97
2023-02-09T17:22:32.247Z,13.00
2023-02-09T17:25:13.495Z,11.70
2023-02-09T17:27:54.818Z,13.33
2023-02-09T17:30:52.579Z,12.03
2023-02-09T17:33:28.109Z,13.10
2023-02-09T17:36:25.835Z,14.43
2023-02-09T17:39:08.134Z,15.83
2023-02-09T17:41:51.456Z,14.10
2023-02-09T17:44:45.593Z,13.63
2023-02-09T17:47:26.465Z,12.80
2023-02-09T17:50:00.382Z,12.87
2023-02-09T17:52:39.342Z,12.97
2023-02-09T17:55:11.527Z,15.03
2023-02-09T17:57:41.617Z,13.20
2023-02-09T18:00:14.263Z,14.20
2023-02-09T18:02:59.810Z,13.63
2023-02-09T18:05:41.370Z,12.53
2023-02-09T18:08:16.273Z,14.30
2023-02-09T18:11:01.285Z,12.30
2023-02-09T18:13:36.259Z,12.40
2023-02-09T18:16:09.033Z,12.67
2023-02-09T18:19:07.314Z,13.10
2023-02-09T18:21:58.011Z,12.13
2023-02-09T18:24:38.585Z,13.37
2023-02-09T18:27:11.329Z,12.00
2023-02-09T18:29:51.399Z,13.43
2023-02-09T18:32:32.238Z,12.40
2023-02-09T18:35:08.320Z,13.00
2023-02-09T18:37:39.405Z,11.90
2023-02-09T18:40:22.769Z,12.40
2023-02-09T18:46:03.731Z,11.83
2023-02-09T18:48:44.949Z,12.97
2023-02-09T18:51:25.409Z,13.60
2023-02-09T18:54:04.004Z,13.97
2023-02-09T18:56:35.800Z,12.97
2023-02-09T18:59:13.040Z,12.13
2023-02-09T19:01:53.940Z,12.53
2023-02-09T19:04:32.310Z,13.20
2023-02-09T19:07:15.583Z,13.43
2023-02-09T19:09:58.832Z,14.27
2023-02-09T19:12:29.673Z,12.57
2023-02-09T19:15:00.666Z,12.70
2023-02-09T19:17:40.979Z,13.27
2023-02-09T19:20:24.515Z,13.63
2023-02-09T19:23:05.683Z,13.30
2023-02-09T19:25:42.629Z,14.57
2023-02-09T19:28:25.561Z,14.47
2023-02-09T19:31:05.913Z,13.10
2023-02-09T19:33:41.517Z,12.87
2023-02-09T19:36:25.685Z,13.53
2023-02-09T19:39:10.980Z,12.77
2023-02-09T19:41:57.484Z,14.37
2023-02-09T19:44:29.588Z,13.90
2023-02-09T19:47:00.004Z,14.10
2023-02-09T19:49:39.441Z,13.83
2023-02-09T19:52:21.792Z,13.80
2023-02-09T19:55:05.284Z,13.27
2023-02-09T19:57:44.030Z,13.73
2023-02-09T20:00:27.712Z,13.60
2023-02-09T20:03:00.743Z,14.70
2023-02-09T20:05:37.033Z,14.90
2023-02-09T20:08:11.009Z,13.23
2023-02-09T20:10:44.645Z,12.87
2023-02-09T20:13:24.460Z,14.50
2023-02-09T20:15:57.062Z,13.20
2023-02-09T20:18:29.360Z,14.70
2023-02-09T20:21:01.213Z,13.30
2023-02-09T20:23:40.541Z,13.40
2023-02-09T20:26:33.998Z,14.47
2023-02-09T20:29:09.194Z,14.10
2023-02-09T20:31:42.611Z,14.77
2023-02-09T20:34:19.529Z,13.90
2023-02-09T20:37:08.967Z,12.37
2023-02-09T20:39:43.413Z,11.87
2023-02-09T20:45:50.041Z,12.33
2023-02-09T20:48:24.021Z,12.60
2023-02-09T20:50:56.867Z,11.60
2023-02-09T20:53:30.156Z,12.20
2023-02-09T20:56:13.070Z,12.40
2023-02-09T20:58:49.713Z,14.27
2023-02-09T21:01:24.165Z,13.33
2023-02-09T21:03:57.596Z,13.50
2023-02-09T21:06:30.635Z,12.50
2023-02-09T21:09:08.983Z,13.60
2023-02-09T21:11:44.982Z,13.60
2023-02-09T21:14:41.842Z,12.87
2023-02-09T21:17:13.181Z,13.13
2023-02-09T21:19:52.983Z,12.90
2023-02-09T21:22:27.038Z,13.50
2023-02-09T21:24:58.196Z,14.70
2023-02-09T21:27:45.429Z,14.27
2023-02-09T21:30:27.807Z,12.90
2023-02-09T21:33:12.488Z,12.83
2023-02-09T21:35:45.238Z,13.17
2023-02-09T21:38:20.791Z,13.00
2023-02-09T21:40:55.647Z,13.53
2023-02-09T21:43:33.062Z,14.57
2023-02-09T21:46:08.409Z,13.27
2023-02-09T21:48:40.686Z,13.67
2023-02-09T21:51:10.681Z,14.40
2023-02-09T21:53:40.653Z,15.17
2023-02-09T21:56:12.517Z,14.20
2023-02-09T21:58:41.195Z,13.80
2023-02-09T22:01:13.333Z,15.13
2023-02-09T22:03:51.018Z,15.20
2023-02-09T22:06:21.861Z,13.43
2023-02-09T22:08:52.354Z,14.30
2023-02-09T22:11:29.724Z,14.47
2023-02-09T22:13:57.997Z,14.87
2023-02-09T22:16:29.586Z,14.77
2023-02-09T22:19:00.220Z,16.60
2023-02-09T22:21:35.582Z,15.77
2023-02-09T22:24:05.436Z,14.80
2023-02-09T22:26:35.009Z,16.40
2023-02-09T22:29:06.126Z,15.90
2023-02-09T22:31:51.680Z,15.57
2023-02-09T22:34:20.063Z,16.20
2023-02-09T22:36:52.970Z,16.23
2023-02-09T22:39:22.682Z,15.57
2023-02-09T22:41:57.078Z,15.40
2023-02-09T22:44:30.291Z,18.67
2023-02-09T22:47:04.726Z,18.07
2023-02-09T22:49:33.216Z,16.33
2023-02-09T22:52:07.203Z,16.53
2023-02-09T22:54:36.117Z,16.70
2023-02-09T22:57:14.654Z,18.40
2023-02-09T22:59:44.294Z,16.90
2023-02-09T23:02:26.066Z,18.67
2023-02-09T23:05:03.979Z,19.00
2023-02-09T23:07:38.743Z,18.30
2023-02-09T23:10:10.026Z,18.43
2023-02-09T23:12:41.700Z,17.17
2023-02-09T23:15:21.190Z,18.30
2023-02-09T23:17:54.171Z,18.07
2023-02-09T23:20:25.694Z,18.27
2023-02-09T23:22:56.448Z,17.27
2023-02-09T23:25:27.309Z,17.57
2023-02-09T23:27:59.060Z,16.83
2023-02-09T23:30:28.585Z,19.40
2023-02-09T23:33:00.808Z,17.70
2023-02-09T23:35:32.016Z,17.40
2023-02-09T23:38:11.310Z,16.50
2023-02-09T23:40:44.014Z,15.80
2023-02-09T23:43:26.483Z,16.50
2023-02-09T23:46:00.280Z,16.67
2023-02-09T23:48:44.353Z,15.33
2023-02-09T23:51:24.149Z,16.17
2023-02-09T23:53:55.453Z,15.10
2023-02-09T23:56:24.675Z,16.50
2023-02-09T23:58:55.375Z,15.30
